createdAt,value
2018-03-07T00:01:14.063Z,30.57
2018-03-07T00:03:41.137Z,30.13
2018-03-07T00:06:07.967Z,30.53
2018-03-07T00:08:35.213Z,28.13
2018-03-07T00:11:02.075Z,27.60
2018-03-07T00:13:29.379Z,30.60
2018-03-07T00:15:56.218Z,29.90
2018-03-07T00:18:23.112Z,25.00
2018-03-07T00:20:50.044Z,29.67
2018-03-07T00:23:16.923Z,27.90
2018-03-07T00:25:43.807Z,27.60
2018-03-07T00:28:10.652Z,28.30
2018-03-07T00:30:37.572Z,26.83
2018-03-07T00:33:04.438Z,27.77
2018-03-07T00:35:31.400Z,27.00
2018-03-07T00:37:58.250Z,25.70
2018-03-07T00:40:25.119Z,24.10
2018-03-07T00:42:51.993Z,22.60
2018-03-07T00:45:18.831Z,26.20
2018-03-07T00:47:45.680Z,27.03
2018-03-07T00:50:12.648Z,24.30
2018-03-07T00:52:39.498Z,25.00
2018-03-07T00:55:06.362Z,25.13
2018-03-07T00:57:33.209Z,26.60
2018-03-07T01:00:00.503Z,23.13
2018-03-07T01:02:27.434Z,22.63
2018-03-07T01:04:54.278Z,23.43
2018-03-07T01:07:21.144Z,22.23
2018-03-07T01:09:48.007Z,24.57
2018-03-07T01:12:14.848Z,22.30
2018-03-07T01:14:42.089Z,23.90
2018-03-07T01:17:09.088Z,23.17
2018-03-07T01:19:35.924Z,21.50
2018-03-07T01:22:03.161Z,22.13
2018-03-07T01:24:30.172Z,21.87
2018-03-07T01:26:57.032Z,25.10
2018-03-07T01:29:23.865Z,22.97
2018-03-07T01:31:51.157Z,22.13
2018-03-07T01:34:18.133Z,22.67
2018-03-07T01:36:44.982Z,22.90
2018-03-07T01:39:11.837Z,22.73
2018-03-07T01:41:38.790Z,24.23
2018-03-07T01:44:05.655Z,22.20
2018-03-07T01:46:32.496Z,23.63
2018-03-07T01:48:59.338Z,22.70
2018-03-07T01:51:38.235Z,27.30
2018-03-07T01:54:05.082Z,25.30
2018-03-07T01:56:31.949Z,27.10
2018-03-07T01:58:58.869Z,29.57
2018-03-07T02:01:25.823Z,27.13
2018-03-07T02:03:52.681Z,27.73
2018-03-07T02:06:19.552Z,29.10
2018-03-07T02:08:46.392Z,32.50
2018-03-07T02:11:13.261Z,29.93
2018-03-07T02:13:40.127Z,27.87
2018-03-07T02:16:06.973Z,27.40
2018-03-07T02:18:33.931Z,31.07
2018-03-07T02:21:00.796Z,32.70
2018-03-07T02:23:27.655Z,33.70
2018-03-07T02:25:54.496Z,31.10
2018-03-07T02:28:21.472Z,33.00
2018-03-07T02:30:48.425Z,27.07
2018-03-07T02:33:15.269Z,31.90
2018-03-07T02:35:42.111Z,29.40
2018-03-07T02:38:09.391Z,29.10
2018-03-07T02:40:36.258Z,26.13
2018-03-07T02:43:03.346Z,28.80
2018-03-07T02:45:30.282Z,28.27
2018-03-07T02:47:57.115Z,31.70
2018-03-07T02:50:23.988Z,27.27
2018-03-07T02:52:50.853Z,28.30
2018-03-07T02:55:17.703Z,27.13
2018-03-07T02:57:44.550Z,28.70
2018-03-07T03:00:11.512Z,25.40
2018-03-07T03:02:38.352Z,28.13
2018-03-07T03:05:05.238Z,26.70
2018-03-07T03:07:32.108Z,26.17
2018-03-07T03:09:59.039Z,28.30
2018-03-07T03:12:25.901Z,29.10
2018-03-07T03:14:52.875Z,29.20
2018-03-07T03:17:19.818Z,27.90
2018-03-07T03:19:47.036Z,29.17
2018-03-07T03:22:14.046Z,29.23
2018-03-07T03:24:40.911Z,24.23
2018-03-07T03:27:07.783Z,27.53
2018-03-07T03:29:34.820Z,29.90
2018-03-07T03:32:01.695Z,27.60
2018-03-07T03:34:28.537Z,29.33
2018-03-07T03:36:55.495Z,26.50
2018-03-07T03:39:22.376Z,35.63
2018-03-07T03:41:49.239Z,29.23
2018-03-07T03:44:16.118Z,28.67
2018-03-07T03:46:42.950Z,32.33
2018-03-07T03:49:09.796Z,29.10
2018-03-07T03:51:36.672Z,32.00
2018-03-07T03:54:03.599Z,31.77
2018-03-07T03:56:30.472Z,29.30
2018-03-07T03:58:57.425Z,26.33
2018-03-07T04:01:24.277Z,25.97
2018-03-07T04:03:51.128Z,24.70
2018-03-07T04:06:18.006Z,28.37
2018-03-07T04:08:44.939Z,28.93
2018-03-07T04:13:44.392Z,24.40
2018-03-07T04:16:11.228Z,26.03
2018-03-07T04:18:38.470Z,24.83
2018-03-07T04:21:05.373Z,21.60
2018-03-07T04:23:32.247Z,23.57
2018-03-07T04:25:59.189Z,21.40
2018-03-07T04:28:26.044Z,24.80
2018-03-07T04:30:53.006Z,21.50
2018-03-07T04:33:19.848Z,24.30
2018-03-07T04:35:46.707Z,20.13
2018-03-07T04:38:13.585Z,21.57
2018-03-07T04:40:40.531Z,23.07
2018-03-07T04:43:07.423Z,21.83
2018-03-07T04:45:34.352Z,21.27
2018-03-07T04:48:01.317Z,20.33
2018-03-07T04:50:28.294Z,22.80
2018-03-07T04:52:55.160Z,23.13
2018-03-07T04:55:22.108Z,20.43
2018-03-07T04:57:49.096Z,21.03
2018-03-07T05:00:16.379Z,22.47
2018-03-07T05:02:43.644Z,23.73
2018-03-07T05:05:10.464Z,28.73
2018-03-07T05:07:37.405Z,21.50
2018-03-07T05:10:04.252Z,27.27
2018-03-07T05:12:31.117Z,23.13
2018-03-07T05:14:58.059Z,23.10
2018-03-07T05:17:24.910Z,22.80
2018-03-07T05:19:51.788Z,22.23
2018-03-07T05:22:18.727Z,24.40
2018-03-07T05:24:45.950Z,23.50
2018-03-07T05:27:12.821Z,24.30
2018-03-07T05:29:39.672Z,25.67
2018-03-07T05:32:06.585Z,23.50
2018-03-07T05:34:33.460Z,29.03
2018-03-07T05:37:00.416Z,23.23
2018-03-07T05:39:27.248Z,24.77
2018-03-07T05:41:54.218Z,22.50
2018-03-07T05:44:21.074Z,24.37
2018-03-07T05:46:48.033Z,22.30
2018-03-07T05:49:14.988Z,27.63
2018-03-07T05:51:41.944Z,24.33
2018-03-07T05:54:08.788Z,26.70
2018-03-07T05:56:35.760Z,25.53
2018-03-07T05:59:02.618Z,27.67
2018-03-07T06:01:29.572Z,23.57
2018-03-07T06:03:56.548Z,25.73
2018-03-07T06:06:23.390Z,25.50
2018-03-07T06:08:50.247Z,24.53
2018-03-07T06:11:17.210Z,23.00
2018-03-07T06:13:44.073Z,27.40
2018-03-07T06:16:10.909Z,25.27
2018-03-07T06:18:37.884Z,22.23
2018-03-07T06:21:04.888Z,25.33
2018-03-07T06:23:31.814Z,24.03
2018-03-07T06:25:58.788Z,23.80
2018-03-07T06:28:25.736Z,24.07
2018-03-07T06:30:52.580Z,23.17
2018-03-07T06:33:19.524Z,24.70
2018-03-07T06:35:46.802Z,21.77
2018-03-07T06:38:13.760Z,20.70
2018-03-07T06:40:40.620Z,22.70
2018-03-07T06:43:07.473Z,22.30
2018-03-07T06:45:34.348Z,21.93
2018-03-07T06:48:01.192Z,21.70
2018-03-07T06:50:28.139Z,22.50
2018-03-07T06:52:55.136Z,19.63
2018-03-07T06:55:22.082Z,23.20
2018-03-07T06:57:48.918Z,21.63
2018-03-07T07:00:15.797Z,20.60
2018-03-07T07:02:42.728Z,20.80
2018-03-07T07:05:10.003Z,22.63
2018-03-07T07:07:36.960Z,20.70
2018-03-07T07:10:03.810Z,22.77
2018-03-07T07:12:30.668Z,21.33
2018-03-07T07:14:57.648Z,20.80
2018-03-07T07:17:24.483Z,24.93
2018-03-07T07:19:51.342Z,22.37
2018-03-07T07:22:18.200Z,22.80
2018-03-07T07:24:45.100Z,22.43
2018-03-07T07:27:11.962Z,21.33
2018-03-07T07:29:38.804Z,24.10
2018-03-07T07:32:05.672Z,23.80
2018-03-07T07:34:32.532Z,21.27
2018-03-07T07:36:59.448Z,26.53
2018-03-07T07:39:26.300Z,23.50
2018-03-07T07:41:53.168Z,20.10
2018-03-07T07:44:20.004Z,27.13
2018-03-07T07:46:46.851Z,20.80
2018-03-07T07:49:14.148Z,22.97
2018-03-07T07:51:40.999Z,20.13
2018-03-07T07:54:07.865Z,25.03
2018-03-07T07:56:34.820Z,23.20
2018-03-07T07:59:01.674Z,22.40
2018-03-07T08:01:28.541Z,21.90
2018-03-07T08:03:55.412Z,22.87
2018-03-07T08:06:22.284Z,20.90
2018-03-07T08:08:49.151Z,23.70
2018-03-07T08:11:16.060Z,22.50
2018-03-07T08:13:43.019Z,25.60
2018-03-07T08:16:09.880Z,23.17
2018-03-07T08:18:36.727Z,23.87
2018-03-07T08:21:15.802Z,24.97
2018-03-07T08:23:42.672Z,22.23
2018-03-07T08:26:09.528Z,21.93
2018-03-07T08:28:36.466Z,23.53
2018-03-07T08:31:03.308Z,22.90
2018-03-07T08:33:30.257Z,20.37
2018-03-07T08:35:57.220Z,23.90
2018-03-07T08:38:24.176Z,24.30
2018-03-07T08:40:51.142Z,22.47
2018-03-07T08:43:17.972Z,22.23
2018-03-07T08:45:44.834Z,25.37
2018-03-07T08:48:11.671Z,24.80
2018-03-07T08:50:38.975Z,22.83
2018-03-07T08:53:05.823Z,22.77
2018-03-07T08:55:32.711Z,22.13
2018-03-07T08:57:59.652Z,21.37
2018-03-07T09:00:26.503Z,21.90
2018-03-07T09:02:53.361Z,30.13
2018-03-07T09:05:20.331Z,22.80
2018-03-07T09:07:47.281Z,23.20
2018-03-07T09:10:14.130Z,19.73
2018-03-07T09:12:41.007Z,21.07
2018-03-07T09:15:07.874Z,23.80
2018-03-07T09:17:34.819Z,22.73
2018-03-07T09:20:01.678Z,21.27
2018-03-07T09:22:28.628Z,21.23
2018-03-07T09:24:55.472Z,20.93
2018-03-07T09:27:22.367Z,21.20
2018-03-07T09:29:49.295Z,19.70
2018-03-07T09:32:16.256Z,21.13
2018-03-07T09:34:43.121Z,22.20
2018-03-07T09:37:09.961Z,23.23
2018-03-07T09:39:36.855Z,19.90
2018-03-07T09:42:03.725Z,19.13
2018-03-07T09:44:30.560Z,20.50
2018-03-07T09:46:57.428Z,21.80
2018-03-07T09:49:24.347Z,21.00
2018-03-07T09:51:51.216Z,19.33
2018-03-07T09:54:18.079Z,20.57
2018-03-07T09:56:45.040Z,21.40
2018-03-07T09:59:11.900Z,21.60
2018-03-07T10:01:38.839Z,20.80
2018-03-07T10:04:05.716Z,19.23
2018-03-07T10:06:32.621Z,20.47
2018-03-07T10:08:59.919Z,20.47
2018-03-07T10:11:31.416Z,19.93
2018-03-07T10:13:58.372Z,20.17
2018-03-07T10:16:25.236Z,18.77
2018-03-07T10:18:52.172Z,18.80
2018-03-07T10:21:19.032Z,18.60
2018-03-07T10:23:45.991Z,19.47
2018-03-07T10:26:12.941Z,18.70
2018-03-07T10:28:39.859Z,17.73
2018-03-07T10:31:06.663Z,18.47
2018-03-07T10:33:33.524Z,18.63
2018-03-07T10:36:00.477Z,17.53
2018-03-07T10:38:27.328Z,17.50
2018-03-07T10:40:54.196Z,17.77
2018-03-07T10:43:21.135Z,17.80
2018-03-07T10:45:48.015Z,17.73
2018-03-07T10:48:14.953Z,17.47
2018-03-07T10:50:42.220Z,16.00
2018-03-07T10:53:09.530Z,15.53
2018-03-07T10:55:36.447Z,15.40
2018-03-07T10:58:03.297Z,15.03
2018-03-07T11:00:30.152Z,15.07
2018-03-07T11:02:57.020Z,13.40
2018-03-07T11:05:23.980Z,15.73
2018-03-07T11:07:50.832Z,15.27
2018-03-07T11:10:17.684Z,15.47
2018-03-07T11:12:44.559Z,14.60
2018-03-07T11:15:11.403Z,14.30
2018-03-07T11:17:38.268Z,13.63
2018-03-07T11:20:05.165Z,12.03
2018-03-07T11:22:32.003Z,13.43
2018-03-07T11:24:59.035Z,14.07
2018-03-07T11:27:26.299Z,12.63
2018-03-07T11:29:53.188Z,12.00
2018-03-07T11:32:20.067Z,12.97
2018-03-07T11:34:46.910Z,10.30
2018-03-07T11:37:13.746Z,10.70
2018-03-07T11:39:40.594Z,11.40
2018-03-07T11:42:07.428Z,10.97
2018-03-07T11:44:34.704Z,10.07
2018-03-07T11:47:01.569Z,8.93
2018-03-07T11:49:28.737Z,8.73
2018-03-07T11:51:55.596Z,11.97
2018-03-07T11:54:22.543Z,8.30
2018-03-07T11:56:49.409Z,7.80
2018-03-07T11:59:16.260Z,6.33
2018-03-07T12:01:43.112Z,3.33
2018-03-07T12:04:10.080Z,3.17
2018-03-07T12:06:37.050Z,4.63
2018-03-07T12:09:03.913Z,3.37
2018-03-07T12:11:30.771Z,3.13
2018-03-07T12:13:57.618Z,3.43
2018-03-07T12:16:24.475Z,3.20
2018-03-07T12:18:51.424Z,3.00
2018-03-07T12:21:18.375Z,3.33
2018-03-07T12:23:45.241Z,2.73
2018-03-07T12:26:12.101Z,4.87
2018-03-07T12:28:39.058Z,3.20
2018-03-07T12:31:06.112Z,4.60
2018-03-07T12:33:33.374Z,3.87
2018-03-07T12:36:00.207Z,3.63
2018-03-07T12:38:27.460Z,3.83
2018-03-07T12:40:54.401Z,3.00
2018-03-07T12:43:21.276Z,3.10
2018-03-07T12:45:48.106Z,2.93
2018-03-07T12:48:15.040Z,7.63
2018-03-07T12:50:42.020Z,2.90
2018-03-07T12:53:08.856Z,3.10
2018-03-07T12:55:35.830Z,4.83
2018-03-07T12:58:02.739Z,5.57
2018-03-07T13:00:29.587Z,3.70
2018-03-07T13:02:56.484Z,4.20
2018-03-07T13:05:23.764Z,2.10
2018-03-07T13:07:50.628Z,2.30
2018-03-07T13:10:17.568Z,2.70
2018-03-07T13:12:44.413Z,3.53
2018-03-07T13:15:11.700Z,3.40
2018-03-07T13:17:38.551Z,2.70
2018-03-07T13:20:05.796Z,3.00
2018-03-07T13:22:33.019Z,2.43
2018-03-07T13:24:59.875Z,2.40
2018-03-07T13:27:26.792Z,3.00
2018-03-07T13:29:53.703Z,3.20
2018-03-07T13:32:20.579Z,1.80
2018-03-07T13:34:47.827Z,1.83
2018-03-07T13:37:14.733Z,2.00
2018-03-07T13:39:42.019Z,2.23
2018-03-07T13:42:08.866Z,16.77
2018-03-07T13:44:35.865Z,3.63
2018-03-07T13:47:02.820Z,2.50
2018-03-07T13:49:29.728Z,2.20
2018-03-07T13:51:56.748Z,1.83
2018-03-07T13:54:23.588Z,2.17
2018-03-07T13:56:50.585Z,2.07
2018-03-07T13:59:17.839Z,1.97
2018-03-07T14:01:44.705Z,1.53
2018-03-07T14:04:11.995Z,1.80
2018-03-07T14:06:38.865Z,2.20
2018-03-07T14:09:05.752Z,3.53
2018-03-07T14:11:32.630Z,3.30
2018-03-07T14:13:59.561Z,1.60
2018-03-07T14:16:26.441Z,2.80
2018-03-07T14:18:53.310Z,1.83
2018-03-07T14:21:20.147Z,2.27
2018-03-07T14:23:47.029Z,2.30
2018-03-07T14:26:13.880Z,3.07
2018-03-07T14:28:40.782Z,2.50
2018-03-07T14:31:07.628Z,2.20
2018-03-07T14:33:34.710Z,1.77
2018-03-07T14:36:01.644Z,2.33
2018-03-07T14:38:28.493Z,3.77
2018-03-07T14:40:55.876Z,2.57
2018-03-07T14:43:22.832Z,2.73
2018-03-07T14:45:49.675Z,2.20
2018-03-07T14:48:16.579Z,1.90
2018-03-07T14:50:43.420Z,2.00
2018-03-07T14:53:10.372Z,2.10
2018-03-07T14:55:37.636Z,2.30
2018-03-07T14:58:04.487Z,1.60
2018-03-07T15:00:31.549Z,1.77
2018-03-07T15:03:09.044Z,1.90
2018-03-07T15:05:36.458Z,1.90
2018-03-07T15:08:04.389Z,1.67
2018-03-07T15:10:31.404Z,1.37
2018-03-07T15:12:58.290Z,1.67
2018-03-07T15:15:25.604Z,3.50
2018-03-07T15:17:52.564Z,3.73
2018-03-07T15:20:19.420Z,1.20
2018-03-07T15:22:46.281Z,1.87
2018-03-07T15:25:13.299Z,1.77
2018-03-07T15:27:40.211Z,2.07
2018-03-07T15:30:07.451Z,1.83
2018-03-07T15:32:34.400Z,1.90
2018-03-07T15:35:01.645Z,2.10
2018-03-07T15:37:28.910Z,2.10
2018-03-07T15:39:55.801Z,2.07
2018-03-07T15:42:23.020Z,2.53
2018-03-07T15:44:49.936Z,2.60
2018-03-07T15:47:16.891Z,2.33
2018-03-07T15:49:43.736Z,2.77
2018-03-07T15:52:10.758Z,2.57
2018-03-07T15:54:38.071Z,3.00
2018-03-07T15:57:05.071Z,3.93
2018-03-07T15:59:33.932Z,3.03
2018-03-07T16:02:00.844Z,2.53
2018-03-07T16:04:27.755Z,2.93
2018-03-07T16:06:54.607Z,2.83
2018-03-07T16:09:21.555Z,3.23
2018-03-07T16:11:48.419Z,3.17
2018-03-07T16:14:15.272Z,3.93
2018-03-07T16:16:42.170Z,3.70
2018-03-07T16:19:09.040Z,3.00
2018-03-07T16:21:35.988Z,3.70
2018-03-07T16:24:02.975Z,5.50
2018-03-07T16:26:29.824Z,4.03
2018-03-07T16:28:56.733Z,3.70
2018-03-07T16:31:23.584Z,4.20
2018-03-07T16:33:50.459Z,3.97
2018-03-07T16:36:17.456Z,3.40
2018-03-07T16:38:44.300Z,5.90
2018-03-07T16:41:11.148Z,3.60
2018-03-07T16:43:38.178Z,4.33
2018-03-07T16:46:05.444Z,4.40
2018-03-07T16:48:32.299Z,4.03
2018-03-07T16:50:59.143Z,4.53
2018-03-07T16:53:26.406Z,4.23
2018-03-07T16:55:53.705Z,3.80
2018-03-07T16:58:20.545Z,3.47
2018-03-07T17:00:47.387Z,3.73
2018-03-07T17:03:14.644Z,3.70
2018-03-07T17:05:41.940Z,3.60
2018-03-07T17:08:08.810Z,2.93
2018-03-07T17:10:35.724Z,3.30
2018-03-07T17:13:02.622Z,3.17
2018-03-07T17:15:29.478Z,2.50
2018-03-07T17:17:56.321Z,3.07
2018-03-07T17:20:23.213Z,3.30
2018-03-07T17:22:50.052Z,3.63
2018-03-07T17:25:16.898Z,3.53
2018-03-07T17:27:43.792Z,4.10
2018-03-07T17:30:10.651Z,3.30
2018-03-07T17:32:37.579Z,3.97
2018-03-07T17:35:04.531Z,3.30
2018-03-07T17:37:31.808Z,3.70
2018-03-07T17:39:58.751Z,6.93
2018-03-07T17:42:25.603Z,4.03
2018-03-07T17:44:52.452Z,3.30
2018-03-07T17:47:19.748Z,3.77
2018-03-07T17:49:46.923Z,3.93
2018-03-07T17:52:13.759Z,4.20
2018-03-07T17:54:40.628Z,3.37
2018-03-07T17:57:07.505Z,4.23
2018-03-07T17:59:34.408Z,3.80
2018-03-07T18:02:01.708Z,4.50
2018-03-07T18:04:28.593Z,3.73
2018-03-07T18:06:55.540Z,4.10
2018-03-07T18:09:22.399Z,3.97
2018-03-07T18:11:49.261Z,4.40
2018-03-07T18:14:16.104Z,4.13
2018-03-07T18:16:43.044Z,4.17
2018-03-07T18:19:10.200Z,4.30
2018-03-07T18:21:37.632Z,4.20
2018-03-07T18:24:04.504Z,4.73
2018-03-07T18:26:31.812Z,4.73
2018-03-07T18:28:58.854Z,5.37
2018-03-07T18:31:26.087Z,6.13
2018-03-07T18:33:52.986Z,5.60
2018-03-07T18:36:19.834Z,6.47
2018-03-07T18:38:46.711Z,5.50
2018-03-07T18:41:13.540Z,5.37
2018-03-07T18:43:40.386Z,4.83
2018-03-07T18:46:07.651Z,5.13
2018-03-07T18:48:35.062Z,5.07
2018-03-07T18:51:02.061Z,4.10
2018-03-07T18:53:28.983Z,3.70
2018-03-07T18:55:55.820Z,4.17
2018-03-07T18:58:22.742Z,4.10
2018-03-07T19:00:49.812Z,4.00
2018-03-07T19:03:17.035Z,3.93
2018-03-07T19:05:43.892Z,3.83
2018-03-07T19:08:10.790Z,3.73
2018-03-07T19:10:38.892Z,3.33
2018-03-07T19:13:05.814Z,3.43
2018-03-07T19:15:32.921Z,3.47
2018-03-07T19:18:00.151Z,3.07
2018-03-07T19:20:27.044Z,2.93
2018-03-07T19:22:53.971Z,2.90
2018-03-07T19:25:20.809Z,3.93
2018-03-07T19:27:47.724Z,2.83
2018-03-07T19:30:14.679Z,3.30
2018-03-07T19:32:41.651Z,3.30
2018-03-07T19:35:08.507Z,2.93
2018-03-07T19:37:35.368Z,3.00
2018-03-07T19:40:02.344Z,2.80
2018-03-07T19:42:29.218Z,2.90
2018-03-07T19:44:56.079Z,2.67
2018-03-07T19:47:22.987Z,2.70
2018-03-07T19:49:49.885Z,2.80
2018-03-07T19:52:16.755Z,2.13
2018-03-07T19:54:43.710Z,2.27
2018-03-07T19:57:10.593Z,2.23
2018-03-07T19:59:37.484Z,2.30
2018-03-07T20:02:04.411Z,2.73
2018-03-07T20:04:31.803Z,2.37
2018-03-07T20:06:58.680Z,2.97
2018-03-07T20:09:25.663Z,2.60
2018-03-07T20:11:52.456Z,2.40
2018-03-07T20:14:19.701Z,2.67
2018-03-07T20:16:46.603Z,2.57
2018-03-07T20:19:13.445Z,3.00
2018-03-07T20:21:40.309Z,2.77
2018-03-07T20:24:07.186Z,3.13
2018-03-07T20:26:34.015Z,2.90
2018-03-07T20:29:00.857Z,2.80
2018-03-07T20:31:28.147Z,2.50
2018-03-07T20:33:55.012Z,2.67
2018-03-07T20:36:21.918Z,3.20
2018-03-07T20:38:48.835Z,2.77
2018-03-07T20:41:15.686Z,2.60
2018-03-07T20:43:42.528Z,2.77
2018-03-07T20:46:09.439Z,2.30
2018-03-07T20:48:36.271Z,2.57
2018-03-07T20:51:03.144Z,2.20
2018-03-07T20:53:30.014Z,2.73
2018-03-07T20:55:56.879Z,2.57
2018-03-07T20:58:23.724Z,2.97
2018-03-07T21:00:50.639Z,2.60
2018-03-07T21:03:17.604Z,3.20
2018-03-07T21:05:44.608Z,2.90
2018-03-07T21:08:11.628Z,2.30
2018-03-07T21:10:38.477Z,2.80
2018-03-07T21:13:05.439Z,2.93
2018-03-07T21:15:32.297Z,2.67
2018-03-07T21:17:59.180Z,2.40
2018-03-07T21:20:26.127Z,2.93
2018-03-07T21:22:53.001Z,2.90
2018-03-07T21:25:19.932Z,3.73
2018-03-07T21:27:46.777Z,3.10
2018-03-07T21:30:13.735Z,3.67
2018-03-07T21:32:40.574Z,3.63
2018-03-07T21:35:07.876Z,3.37
2018-03-07T21:37:34.840Z,3.77
2018-03-07T21:40:01.795Z,4.87
2018-03-07T21:42:28.652Z,3.60
2018-03-07T21:44:55.491Z,4.40
2018-03-07T21:47:22.355Z,3.70
2018-03-07T21:49:49.212Z,4.50
2018-03-07T21:52:16.183Z,4.37
2018-03-07T21:54:43.059Z,4.60
2018-03-07T21:57:09.924Z,4.13
2018-03-07T21:59:36.817Z,4.33
2018-03-07T22:02:04.113Z,4.50
2018-03-07T22:04:30.959Z,4.60
2018-03-07T22:06:57.920Z,5.07
2018-03-07T22:09:24.751Z,5.10
2018-03-07T22:11:52.115Z,5.53
2018-03-07T22:14:18.960Z,5.73
2018-03-07T22:16:45.840Z,5.40
2018-03-07T22:19:13.092Z,6.27
2018-03-07T22:21:39.986Z,5.70
2018-03-07T22:24:07.252Z,5.83
2018-03-07T22:26:34.115Z,5.57
2018-03-07T22:29:01.146Z,5.50
2018-03-07T22:31:28.049Z,6.07
2018-03-07T22:33:54.900Z,5.90
2018-03-07T22:36:21.838Z,6.70
2018-03-07T22:38:49.106Z,7.10
2018-03-07T22:41:16.006Z,6.43
2018-03-07T22:43:42.860Z,7.17
2018-03-07T22:46:10.047Z,7.77
2018-03-07T22:48:36.896Z,6.50
2018-03-07T22:51:03.818Z,8.30
2018-03-07T22:53:30.864Z,6.43
2018-03-07T22:55:57.707Z,7.67
2018-03-07T22:58:24.979Z,7.00
2018-03-07T23:00:51.832Z,7.00
2018-03-07T23:03:18.700Z,7.20
2018-03-07T23:05:45.547Z,7.37
2018-03-07T23:08:12.419Z,7.20
2018-03-07T23:10:39.374Z,7.30
2018-03-07T23:13:06.315Z,7.23
2018-03-07T23:15:33.600Z,8.00
2018-03-07T23:18:00.451Z,6.70
2018-03-07T23:20:27.286Z,7.13
2018-03-07T23:22:54.536Z,7.43
2018-03-07T23:25:21.485Z,7.13
2018-03-07T23:27:48.392Z,7.80
2018-03-07T23:30:15.252Z,6.93
2018-03-07T23:32:42.100Z,6.67
2018-03-07T23:35:08.959Z,6.63
2018-03-07T23:37:35.803Z,6.90
2018-03-07T23:40:03.042Z,7.03
2018-03-07T23:42:29.867Z,6.80
2018-03-07T23:44:56.807Z,6.97
2018-03-07T23:47:23.651Z,6.27
2018-03-07T23:49:50.484Z,6.30
2018-03-07T23:52:17.740Z,6.47
2018-03-07T23:54:44.568Z,6.20
2018-03-07T23:57:11.432Z,6.70
2018-03-07T23:59:38.267Z,6.77
